sensor_id;sensor_type;location;lat;lon;timestamp;P1;durP1;ratioP1;P2;durP2;ratioP2
297;SDS011;133;49.626;9.680;2023-02-28T00:00:48;4.47;;;4.10;;
297;SDS011;133;49.626;9.680;2023-02-28T00:03:13;4.87;;;4.30;;
297;SDS011;133;49.626;9.680;2023-02-28T00:05:39;4.73;;;4.47;;
297;SDS011;133;49.626;9.680;2023-02-28T00:08:06;4.33;;;4.03;;
297;SDS011;133;49.626;9.680;2023-02-28T00:10:32;4.50;;;4.20;;
297;SDS011;133;49.626;9.680;2023-02-28T00:13:00;4.32;;;3.90;;
297;SDS011;133;49.626;9.680;2023-02-28T00:15:27;4.17;;;3.93;;
297;SDS011;133;49.626;9.680;2023-02-28T00:17:53;4.00;;;3.80;;
297;SDS011;133;49.626;9.680;2023-02-28T00:20:19;4.35;;;4.05;;
297;SDS011;133;49.626;9.680;2023-02-28T00:22:46;6.03;;;4.33;;
297;SDS011;133;49.626;9.680;2023-02-28T00:25:15;4.43;;;4.13;;
297;SDS011;133;49.626;9.680;2023-02-28T00:27:46;4.30;;;4.00;;
297;SDS011;133;49.626;9.680;2023-02-28T00:30:13;6.63;;;4.13;;
297;SDS011;133;49.626;9.680;2023-02-28T00:32:42;4.45;;;4.15;;
297;SDS011;133;49.626;9.680;2023-02-28T00:35:08;4.60;;;4.20;;
297;SDS011;133;49.626;9.680;2023-02-28T00:37:34;4.80;;;4.15;;
297;SDS011;133;49.626;9.680;2023-02-28T00:40:01;5.17;;;4.10;;
297;SDS011;133;49.626;9.680;2023-02-28T00:42:29;4.10;;;3.90;;
297;SDS011;133;49.626;9.680;2023-02-28T00:44:55;4.97;;;4.67;;
297;SDS011;133;49.626;9.680;2023-02-28T00:47:21;7.73;;;4.93;;
297;SDS011;133;49.626;9.680;2023-02-28T00:49:47;4.80;;;4.50;;
297;SDS011;133;49.626;9.680;2023-02-28T00:52:12;4.70;;;4.47;;
297;SDS011;133;49.626;9.680;2023-02-28T00:54:38;4.60;;;4.30;;
297;SDS011;133;49.626;9.680;2023-02-28T00:57:03;4.50;;;4.20;;
297;SDS011;133;49.626;9.680;2023-02-28T00:59:29;4.57;;;4.27;;
297;SDS011;133;49.626;9.680;2023-02-28T01:01:54;4.87;;;4.57;;
297;SDS011;133;49.626;9.680;2023-02-28T01:04:20;5.00;;;4.67;;
297;SDS011;133;49.626;9.680;2023-02-28T01:06:46;7.50;;;4.50;;
297;SDS011;133;49.626;9.680;2023-02-28T01:09:11;5.43;;;4.30;;
297;SDS011;133;49.626;9.680;2023-02-28T01:11:37;5.07;;;4.33;;
297;SDS011;133;49.626;9.680;2023-02-28T01:14:04;4.80;;;4.50;;
297;SDS011;133;49.626;9.680;2023-02-28T01:16:29;4.90;;;4.23;;
297;SDS011;133;49.626;9.680;2023-02-28T01:18:55;5.65;;;4.60;;
297;SDS011;133;49.626;9.680;2023-02-28T01:21:21;4.80;;;4.53;;
297;SDS011;133;49.626;9.680;2023-02-28T01:23:47;4.90;;;4.60;;
297;SDS011;133;49.626;9.680;2023-02-28T01:26:14;8.23;;;4.32;;
297;SDS011;133;49.626;9.680;2023-02-28T01:28:42;5.18;;;4.57;;
297;SDS011;133;49.626;9.680;2023-02-28T01:31:08;5.00;;;4.70;;
297;SDS011;133;49.626;9.680;2023-02-28T01:33:35;5.00;;;4.72;;
297;SDS011;133;49.626;9.680;2023-02-28T01:36:03;4.90;;;4.60;;
297;SDS011;133;49.626;9.680;2023-02-28T01:38:34;6.18;;;4.85;;
297;SDS011;133;49.626;9.680;2023-02-28T01:41:00;4.53;;;4.20;;
297;SDS011;133;49.626;9.680;2023-02-28T01:43:27;5.15;;;4.85;;
297;SDS011;133;49.626;9.680;2023-02-28T01:45:58;5.15;;;4.50;;
297;SDS011;133;49.626;9.680;2023-02-28T01:48:27;5.60;;;5.00;;
297;SDS011;133;49.626;9.680;2023-02-28T01:50:58;5.45;;;5.15;;
297;SDS011;133;49.626;9.680;2023-02-28T01:53:30;7.30;;;5.13;;
297;SDS011;133;49.626;9.680;2023-02-28T01:55:59;5.38;;;4.70;;
297;SDS011;133;49.626;9.680;2023-02-28T01:58:25;5.43;;;4.63;;
297;SDS011;133;49.626;9.680;2023-02-28T02:00:51;6.33;;;5.40;;
297;SDS011;133;49.626;9.680;2023-02-28T02:03:17;6.30;;;5.53;;
297;SDS011;133;49.626;9.680;2023-02-28T02:05:44;6.05;;;5.20;;
297;SDS011;133;49.626;9.680;2023-02-28T02:08:15;4.75;;;4.55;;
297;SDS011;133;49.626;9.680;2023-02-28T02:10:44;5.80;;;5.45;;
297;SDS011;133;49.626;9.680;2023-02-28T02:33:12;4.82;;;4.53;;
297;SDS011;133;49.626;9.680;2023-02-28T02:35:49;6.40;;;4.80;;
297;SDS011;133;49.626;9.680;2023-02-28T02:39:24;5.65;;;5.03;;
297;SDS011;133;49.626;9.680;2023-02-28T02:41:41;6.97;;;4.85;;
297;SDS011;133;49.626;9.680;2023-02-28T02:44:20;6.43;;;5.30;;
297;SDS011;133;49.626;9.680;2023-02-28T02:47:01;5.78;;;5.00;;
297;SDS011;133;49.626;9.680;2023-02-28T02:49:33;8.02;;;5.20;;
297;SDS011;133;49.626;9.680;2023-02-28T02:52:03;6.05;;;4.82;;
297;SDS011;133;49.626;9.680;2023-02-28T02:54:33;6.25;;;5.07;;
297;SDS011;133;49.626;9.680;2023-02-28T02:57:03;5.80;;;5.00;;
297;SDS011;133;49.626;9.680;2023-02-28T02:59:33;5.82;;;5.50;;
297;SDS011;133;49.626;9.680;2023-02-28T03:02:03;6.05;;;4.55;;
297;SDS011;133;49.626;9.680;2023-02-28T03:04:33;5.85;;;5.20;;
297;SDS011;133;49.626;9.680;2023-02-28T03:07:04;5.15;;;4.85;;
297;SDS011;133;49.626;9.680;2023-02-28T03:09:32;5.30;;;5.00;;
297;SDS011;133;49.626;9.680;2023-02-28T03:11:59;4.72;;;4.43;;
297;SDS011;133;49.626;9.680;2023-02-28T03:27:51;4.90;;;4.60;;
297;SDS011;133;49.626;9.680;2023-02-28T03:30:35;4.93;;;4.65;;
297;SDS011;133;49.626;9.680;2023-02-28T03:33:09;5.00;;;4.78;;
297;SDS011;133;49.626;9.680;2023-02-28T03:35:42;8.27;;;4.70;;
297;SDS011;133;49.626;9.680;2023-02-28T03:38:14;9.63;;;5.30;;
297;SDS011;133;49.626;9.680;2023-02-28T03:40:48;6.22;;;4.63;;
297;SDS011;133;49.626;9.680;2023-02-28T03:43:22;6.25;;;4.80;;
297;SDS011;133;49.626;9.680;2023-02-28T03:45:52;5.72;;;4.55;;
297;SDS011;133;49.626;9.680;2023-02-28T03:48:22;4.82;;;4.53;;
297;SDS011;133;49.626;9.680;2023-02-28T03:50:55;5.47;;;4.88;;
297;SDS011;133;49.626;9.680;2023-02-28T03:56:05;6.97;;;5.10;;
297;SDS011;133;49.626;9.680;2023-02-28T03:58:43;6.13;;;4.95;;
297;SDS011;133;49.626;9.680;2023-02-28T04:01:30;5.20;;;4.90;;
297;SDS011;133;49.626;9.680;2023-02-28T04:04:02;5.68;;;4.80;;
297;SDS011;133;49.626;9.680;2023-02-28T04:06:29;7.78;;;4.90;;
297;SDS011;133;49.626;9.680;2023-02-28T04:08:57;5.47;;;4.88;;
297;SDS011;133;49.626;9.680;2023-02-28T04:11:24;6.73;;;4.60;;
297;SDS011;133;49.626;9.680;2023-02-28T04:14:00;5.28;;;4.97;;
297;SDS011;133;49.626;9.680;2023-02-28T04:16:29;5.25;;;4.38;;
297;SDS011;133;49.626;9.680;2023-02-28T04:18:55;6.32;;;5.35;;
297;SDS011;133;49.626;9.680;2023-02-28T04:21:27;7.18;;;5.53;;
297;SDS011;133;49.626;9.680;2023-02-28T04:23:54;6.43;;;5.10;;
297;SDS011;133;49.626;9.680;2023-02-28T04:26:20;5.28;;;4.97;;
297;SDS011;133;49.626;9.680;2023-02-28T04:28:45;12.10;;;5.50;;
297;SDS011;133;49.626;9.680;2023-02-28T04:31:11;5.33;;;5.00;;
297;SDS011;133;49.626;9.680;2023-02-28T04:33:36;5.67;;;4.93;;
297;SDS011;133;49.626;9.680;2023-02-28T04:36:03;5.67;;;5.37;;
297;SDS011;133;49.626;9.680;2023-02-28T04:38:33;5.00;;;4.70;;
297;SDS011;133;49.626;9.680;2023-02-28T04:41:00;5.25;;;4.95;;
297;SDS011;133;49.626;9.680;2023-02-28T04:43:27;5.10;;;4.37;;
297;SDS011;133;49.626;9.680;2023-02-28T04:45:53;6.15;;;5.00;;
297;SDS011;133;49.626;9.680;2023-02-28T04:48:22;6.22;;;5.10;;
297;SDS011;133;49.626;9.680;2023-02-28T04:50:49;5.38;;;4.70;;
297;SDS011;133;49.626;9.680;2023-02-28T04:53:15;5.83;;;5.40;;
297;SDS011;133;49.626;9.680;2023-02-28T04:55:40;5.13;;;4.83;;
297;SDS011;133;49.626;9.680;2023-02-28T04:58:06;9.00;;;4.70;;
297;SDS011;133;49.626;9.680;2023-02-28T05:00:32;5.60;;;4.87;;
297;SDS011;133;49.626;9.680;2023-02-28T05:02:57;6.27;;;5.73;;
297;SDS011;133;49.626;9.680;2023-02-28T05:05:23;4.97;;;4.63;;
297;SDS011;133;49.626;9.680;2023-02-28T05:07:48;7.23;;;5.70;;
297;SDS011;133;49.626;9.680;2023-02-28T05:10:14;5.80;;;5.30;;
297;SDS011;133;49.626;9.680;2023-02-28T05:12:40;5.87;;;5.07;;
297;SDS011;133;49.626;9.680;2023-02-28T05:15:05;5.70;;;5.13;;
297;SDS011;133;49.626;9.680;2023-02-28T05:17:31;7.18;;;5.65;;
297;SDS011;133;49.626;9.680;2023-02-28T05:19:57;6.10;;;5.07;;
297;SDS011;133;49.626;9.680;2023-02-28T05:22:22;7.73;;;4.97;;
297;SDS011;133;49.626;9.680;2023-02-28T05:24:48;6.77;;;5.50;;
297;SDS011;133;49.626;9.680;2023-02-28T05:27:14;5.60;;;5.30;;
297;SDS011;133;49.626;9.680;2023-02-28T05:29:39;5.97;;;5.67;;
297;SDS011;133;49.626;9.680;2023-02-28T05:32:10;6.28;;;5.53;;
297;SDS011;133;49.626;9.680;2023-02-28T05:34:39;7.30;;;5.90;;
297;SDS011;133;49.626;9.680;2023-02-28T05:37:07;5.63;;;5.32;;
297;SDS011;133;49.626;9.680;2023-02-28T05:39:37;6.13;;;5.18;;
297;SDS011;133;49.626;9.680;2023-02-28T05:42:03;5.97;;;5.15;;
297;SDS011;133;49.626;9.680;2023-02-28T05:44:29;8.65;;;5.70;;
297;SDS011;133;49.626;9.680;2023-02-28T05:46:55;8.50;;;6.03;;
297;SDS011;133;49.626;9.680;2023-02-28T05:49:20;7.80;;;6.30;;
297;SDS011;133;49.626;9.680;2023-02-28T05:51:46;6.57;;;5.63;;
297;SDS011;133;49.626;9.680;2023-02-28T05:54:12;6.00;;;5.27;;
297;SDS011;133;49.626;9.680;2023-02-28T05:56:38;7.47;;;6.30;;
297;SDS011;133;49.626;9.680;2023-02-28T05:59:09;5.85;;;5.45;;
297;SDS011;133;49.626;9.680;2023-02-28T06:01:39;9.63;;;5.40;;
297;SDS011;133;49.626;9.680;2023-02-28T06:04:07;6.68;;;5.80;;
297;SDS011;133;49.626;9.680;2023-02-28T06:06:34;6.13;;;5.80;;
297;SDS011;133;49.626;9.680;2023-02-28T06:09:01;6.50;;;5.60;;
297;SDS011;133;49.626;9.680;2023-02-28T06:11:28;7.90;;;6.25;;
297;SDS011;133;49.626;9.680;2023-02-28T06:13:55;6.33;;;5.97;;
297;SDS011;133;49.626;9.680;2023-02-28T06:16:21;6.43;;;5.22;;
297;SDS011;133;49.626;9.680;2023-02-28T06:18:47;7.35;;;5.70;;
297;SDS011;133;49.626;9.680;2023-02-28T06:21:13;7.33;;;6.00;;
297;SDS011;133;49.626;9.680;2023-02-28T06:23:38;8.73;;;6.03;;
297;SDS011;133;49.626;9.680;2023-02-28T06:26:04;7.50;;;5.60;;
297;SDS011;133;49.626;9.680;2023-02-28T06:28:30;8.73;;;6.40;;
297;SDS011;133;49.626;9.680;2023-02-28T06:30:56;6.83;;;6.10;;
297;SDS011;133;49.626;9.680;2023-02-28T06:33:21;7.30;;;5.47;;
297;SDS011;133;49.626;9.680;2023-02-28T06:35:49;8.20;;;6.43;;
297;SDS011;133;49.626;9.680;2023-02-28T06:38:16;6.88;;;5.80;;
297;SDS011;133;49.626;9.680;2023-02-28T06:40:43;9.88;;;5.60;;
297;SDS011;133;49.626;9.680;2023-02-28T06:43:09;7.13;;;5.78;;
297;SDS011;133;49.626;9.680;2023-02-28T06:45:40;5.88;;;5.68;;
297;SDS011;133;49.626;9.680;2023-02-28T06:48:07;7.10;;;5.70;;
297;SDS011;133;49.626;9.680;2023-02-28T06:50:32;7.83;;;6.30;;
297;SDS011;133;49.626;9.680;2023-02-28T06:52:58;5.43;;;5.10;;
297;SDS011;133;49.626;9.680;2023-02-28T06:55:24;6.43;;;5.60;;
297;SDS011;133;49.626;9.680;2023-02-28T06:57:49;6.60;;;5.47;;
297;SDS011;133;49.626;9.680;2023-02-28T07:00:15;7.03;;;5.50;;
297;SDS011;133;49.626;9.680;2023-02-28T07:02:41;6.80;;;5.57;;
297;SDS011;133;49.626;9.680;2023-02-28T07:05:07;5.70;;;5.30;;
297;SDS011;133;49.626;9.680;2023-02-28T07:07:33;5.72;;;5.40;;
297;SDS011;133;49.626;9.680;2023-02-28T07:10:01;5.03;;;4.72;;
297;SDS011;133;49.626;9.680;2023-02-28T07:12:27;5.17;;;4.90;;
297;SDS011;133;49.626;9.680;2023-02-28T07:14:52;5.37;;;4.97;;
297;SDS011;133;49.626;9.680;2023-02-28T07:17:19;12.00;;;5.20;;
297;SDS011;133;49.626;9.680;2023-02-28T07:19:45;7.77;;;4.70;;
297;SDS011;133;49.626;9.680;2023-02-28T07:22:10;5.80;;;5.30;;
297;SDS011;133;49.626;9.680;2023-02-28T07:24:36;5.90;;;4.97;;
297;SDS011;133;49.626;9.680;2023-02-28T07:27:01;6.10;;;5.20;;
297;SDS011;133;49.626;9.680;2023-02-28T07:29:27;7.55;;;5.53;;
297;SDS011;133;49.626;9.680;2023-02-28T07:31:53;5.00;;;4.70;;
297;SDS011;133;49.626;9.680;2023-02-28T07:34:20;7.50;;;5.77;;
297;SDS011;133;49.626;9.680;2023-02-28T07:36:46;6.25;;;5.07;;
297;SDS011;133;49.626;9.680;2023-02-28T07:39:11;5.43;;;5.10;;
297;SDS011;133;49.626;9.680;2023-02-28T07:41:37;6.03;;;4.83;;
297;SDS011;133;49.626;9.680;2023-02-28T07:44:08;6.63;;;5.57;;
297;SDS011;133;49.626;9.680;2023-02-28T07:46:36;5.53;;;5.22;;
297;SDS011;133;49.626;9.680;2023-02-28T07:49:03;5.57;;;5.07;;
297;SDS011;133;49.626;9.680;2023-02-28T07:51:29;6.10;;;5.10;;
297;SDS011;133;49.626;9.680;2023-02-28T07:53:55;7.32;;;5.40;;
297;SDS011;133;49.626;9.680;2023-02-28T07:56:21;7.75;;;6.03;;
297;SDS011;133;49.626;9.680;2023-02-28T07:58:47;5.53;;;5.23;;
297;SDS011;133;49.626;9.680;2023-02-28T08:01:13;8.90;;;6.07;;
297;SDS011;133;49.626;9.680;2023-02-28T08:03:39;5.60;;;5.30;;
297;SDS011;133;49.626;9.680;2023-02-28T08:06:05;8.00;;;5.40;;
297;SDS011;133;49.626;9.680;2023-02-28T08:08:33;6.70;;;5.57;;
297;SDS011;133;49.626;9.680;2023-02-28T08:10:59;7.07;;;5.70;;
297;SDS011;133;49.626;9.680;2023-02-28T08:13:26;7.00;;;5.30;;
297;SDS011;133;49.626;9.680;2023-02-28T08:15:53;7.70;;;5.73;;
297;SDS011;133;49.626;9.680;2023-02-28T08:18:20;6.67;;;5.40;;
297;SDS011;133;49.626;9.680;2023-02-28T08:20:45;6.70;;;5.90;;
297;SDS011;133;49.626;9.680;2023-02-28T08:23:11;7.07;;;5.47;;
297;SDS011;133;49.626;9.680;2023-02-28T08:25:37;7.93;;;6.13;;
297;SDS011;133;49.626;9.680;2023-02-28T08:28:02;6.83;;;5.83;;
297;SDS011;133;49.626;9.680;2023-02-28T08:30:28;7.63;;;6.70;;
297;SDS011;133;49.626;9.680;2023-02-28T08:32:54;7.47;;;5.63;;
297;SDS011;133;49.626;9.680;2023-02-28T08:35:20;8.30;;;6.17;;
297;SDS011;133;49.626;9.680;2023-02-28T08:37:49;7.13;;;6.20;;
297;SDS011;133;49.626;9.680;2023-02-28T08:40:15;9.07;;;6.10;;
297;SDS011;133;49.626;9.680;2023-02-28T08:42:47;5.93;;;5.43;;
297;SDS011;133;49.626;9.680;2023-02-28T08:45:14;8.67;;;6.37;;
297;SDS011;133;49.626;9.680;2023-02-28T08:47:40;7.40;;;6.07;;
297;SDS011;133;49.626;9.680;2023-02-28T08:50:06;7.43;;;6.17;;
297;SDS011;133;49.626;9.680;2023-02-28T08:52:31;7.63;;;6.30;;
297;SDS011;133;49.626;9.680;2023-02-28T08:54:57;9.03;;;6.70;;
297;SDS011;133;49.626;9.680;2023-02-28T08:57:23;9.67;;;7.00;;
297;SDS011;133;49.626;9.680;2023-02-28T08:59:51;7.20;;;6.37;;
297;SDS011;133;49.626;9.680;2023-02-28T09:02:17;9.23;;;7.10;;
297;SDS011;133;49.626;9.680;2023-02-28T09:04:42;9.70;;;7.50;;
297;SDS011;133;49.626;9.680;2023-02-28T09:07:10;6.53;;;6.13;;
297;SDS011;133;49.626;9.680;2023-02-28T09:09:36;8.00;;;6.73;;
297;SDS011;133;49.626;9.680;2023-02-28T09:12:02;11.00;;;7.30;;
297;SDS011;133;49.626;9.680;2023-02-28T09:14:28;9.03;;;6.87;;
297;SDS011;133;49.626;9.680;2023-02-28T09:16:54;8.10;;;6.97;;
297;SDS011;133;49.626;9.680;2023-02-28T09:19:19;7.30;;;6.87;;
297;SDS011;133;49.626;9.680;2023-02-28T09:21:45;7.70;;;7.10;;
297;SDS011;133;49.626;9.680;2023-02-28T09:24:11;8.83;;;7.27;;
297;SDS011;133;49.626;9.680;2023-02-28T09:26:39;8.80;;;6.90;;
297;SDS011;133;49.626;9.680;2023-02-28T09:29:05;9.97;;;7.03;;
297;SDS011;133;49.626;9.680;2023-02-28T09:31:31;8.20;;;6.60;;
297;SDS011;133;49.626;9.680;2023-02-28T09:33:57;10.17;;;7.17;;
297;SDS011;133;49.626;9.680;2023-02-28T09:36:24;8.33;;;7.10;;
297;SDS011;133;49.626;9.680;2023-02-28T09:38:51;12.20;;;7.17;;
297;SDS011;133;49.626;9.680;2023-02-28T09:41:24;9.07;;;7.57;;
297;SDS011;133;49.626;9.680;2023-02-28T09:43:55;9.80;;;6.83;;
297;SDS011;133;49.626;9.680;2023-02-28T09:46:28;9.13;;;7.73;;
297;SDS011;133;49.626;9.680;2023-02-28T09:49:00;9.40;;;7.37;;
297;SDS011;133;49.626;9.680;2023-02-28T09:54:17;8.50;;;7.23;;
297;SDS011;133;49.626;9.680;2023-02-28T09:56:48;9.40;;;7.53;;
297;SDS011;133;49.626;9.680;2023-02-28T10:02:05;10.47;;;7.60;;
297;SDS011;133;49.626;9.680;2023-02-28T10:09:59;10.13;;;7.70;;
297;SDS011;133;49.626;9.680;2023-02-28T10:12:29;9.30;;;7.60;;
297;SDS011;133;49.626;9.680;2023-02-28T10:14:57;11.77;;;8.50;;
297;SDS011;133;49.626;9.680;2023-02-28T10:17:28;8.13;;;7.73;;
297;SDS011;133;49.626;9.680;2023-02-28T10:20:12;10.80;;;7.53;;
297;SDS011;133;49.626;9.680;2023-02-28T10:25:48;8.90;;;7.80;;
297;SDS011;133;49.626;9.680;2023-02-28T10:28:21;11.03;;;8.37;;
297;SDS011;133;49.626;9.680;2023-02-28T10:30:51;10.90;;;8.47;;
297;SDS011;133;49.626;9.680;2023-02-28T10:33:19;10.83;;;7.70;;
297;SDS011;133;49.626;9.680;2023-02-28T10:36:02;13.43;;;8.20;;
297;SDS011;133;49.626;9.680;2023-02-28T10:38:36;9.53;;;7.93;;
297;SDS011;133;49.626;9.680;2023-02-28T10:41:14;11.77;;;8.67;;
297;SDS011;133;49.626;9.680;2023-02-28T10:46:57;9.60;;;8.37;;
297;SDS011;133;49.626;9.680;2023-02-28T10:49:24;10.63;;;8.27;;
297;SDS011;133;49.626;9.680;2023-02-28T10:51:56;11.40;;;8.97;;
297;SDS011;133;49.626;9.680;2023-02-28T10:54:27;9.90;;;8.43;;
297;SDS011;133;49.626;9.680;2023-02-28T10:57:08;11.60;;;8.50;;
297;SDS011;133;49.626;9.680;2023-02-28T10:59:40;11.70;;;8.37;;
297;SDS011;133;49.626;9.680;2023-02-28T11:04:58;14.13;;;8.50;;
297;SDS011;133;49.626;9.680;2023-02-28T11:07:24;8.70;;;7.70;;
297;SDS011;133;49.626;9.680;2023-02-28T11:09:53;8.83;;;7.67;;
297;SDS011;133;49.626;9.680;2023-02-28T11:14:54;10.00;;;8.73;;
297;SDS011;133;49.626;9.680;2023-02-28T11:17:23;11.13;;;8.07;;
297;SDS011;133;49.626;9.680;2023-02-28T11:19:52;9.60;;;8.30;;
297;SDS011;133;49.626;9.680;2023-02-28T11:22:27;10.03;;;7.90;;
297;SDS011;133;49.626;9.680;2023-02-28T11:24:55;11.00;;;8.40;;
297;SDS011;133;49.626;9.680;2023-02-28T11:29:55;9.03;;;7.93;;
297;SDS011;133;49.626;9.680;2023-02-28T11:32:23;11.53;;;8.90;;
297;SDS011;133;49.626;9.680;2023-02-28T11:35:01;13.90;;;8.70;;
297;SDS011;133;49.626;9.680;2023-02-28T11:37:37;11.47;;;9.00;;
297;SDS011;133;49.626;9.680;2023-02-28T11:40:13;14.07;;;9.03;;
297;SDS011;133;49.626;9.680;2023-02-28T11:42:50;10.83;;;8.90;;
297;SDS011;133;49.626;9.680;2023-02-28T11:46:06;12.50;;;8.70;;
297;SDS011;133;49.626;9.680;2023-02-28T11:51:54;9.33;;;8.37;;
297;SDS011;133;49.626;9.680;2023-02-28T11:54:40;9.93;;;8.27;;
297;SDS011;133;49.626;9.680;2023-02-28T11:57:25;11.60;;;9.10;;
297;SDS011;133;49.626;9.680;2023-02-28T12:00:15;11.03;;;8.33;;
297;SDS011;133;49.626;9.680;2023-02-28T12:05:34;11.07;;;8.97;;
297;SDS011;133;49.626;9.680;2023-02-28T12:08:26;8.57;;;7.70;;
297;SDS011;133;49.626;9.680;2023-02-28T12:25:28;10.00;;;8.40;;
297;SDS011;133;49.626;9.680;2023-02-28T12:28:17;11.13;;;8.50;;
297;SDS011;133;49.626;9.680;2023-02-28T12:31:01;11.10;;;8.70;;
297;SDS011;133;49.626;9.680;2023-02-28T12:33:51;11.80;;;9.20;;
297;SDS011;133;49.626;9.680;2023-02-28T12:36:20;11.77;;;9.40;;
297;SDS011;133;49.626;9.680;2023-02-28T12:41:19;11.53;;;8.83;;
297;SDS011;133;49.626;9.680;2023-02-28T12:44:07;13.53;;;8.40;;
297;SDS011;133;49.626;9.680;2023-02-28T12:46:55;11.30;;;8.80;;
297;SDS011;133;49.626;9.680;2023-02-28T12:49:26;11.80;;;9.80;;
297;SDS011;133;49.626;9.680;2023-02-28T12:51:56;9.97;;;8.60;;
297;SDS011;133;49.626;9.680;2023-02-28T12:54:29;10.07;;;8.90;;
297;SDS011;133;49.626;9.680;2023-02-28T12:57:01;12.83;;;9.30;;
297;SDS011;133;49.626;9.680;2023-02-28T12:59:55;11.20;;;9.53;;
297;SDS011;133;49.626;9.680;2023-02-28T13:02:32;9.70;;;8.53;;
297;SDS011;133;49.626;9.680;2023-02-28T13:10:44;17.73;;;10.03;;
297;SDS011;133;49.626;9.680;2023-02-28T13:13:21;11.20;;;8.80;;
297;SDS011;133;49.626;9.680;2023-02-28T13:16:02;11.40;;;9.30;;
297;SDS011;133;49.626;9.680;2023-02-28T13:18:36;11.40;;;9.00;;
297;SDS011;133;49.626;9.680;2023-02-28T13:21:10;11.73;;;8.93;;
297;SDS011;133;49.626;9.680;2023-02-28T13:39:56;11.60;;;9.77;;
297;SDS011;133;49.626;9.680;2023-02-28T13:47:39;12.37;;;9.30;;
297;SDS011;133;49.626;9.680;2023-02-28T14:06:36;12.43;;;10.13;;
297;SDS011;133;49.626;9.680;2023-02-28T14:11:51;10.43;;;9.90;;
297;SDS011;133;49.626;9.680;2023-02-28T14:17:14;14.00;;;10.77;;
297;SDS011;133;49.626;9.680;2023-02-28T14:19:41;10.67;;;9.40;;
297;SDS011;133;49.626;9.680;2023-02-28T14:31:03;10.60;;;9.53;;
297;SDS011;133;49.626;9.680;2023-02-28T14:36:37;12.73;;;9.20;;
297;SDS011;133;49.626;9.680;2023-02-28T14:39:06;11.20;;;9.80;;
297;SDS011;133;49.626;9.680;2023-02-28T14:41:38;12.67;;;10.33;;
297;SDS011;133;49.626;9.680;2023-02-28T14:46:48;11.77;;;8.90;;
297;SDS011;133;49.626;9.680;2023-02-28T14:49:26;12.47;;;9.70;;
297;SDS011;133;49.626;9.680;2023-02-28T14:54:46;13.70;;;10.27;;
297;SDS011;133;49.626;9.680;2023-02-28T14:57:25;11.83;;;9.60;;
297;SDS011;133;49.626;9.680;2023-02-28T14:59:56;13.67;;;9.40;;
297;SDS011;133;49.626;9.680;2023-02-28T15:02:30;11.67;;;9.03;;
297;SDS011;133;49.626;9.680;2023-02-28T15:04:59;14.30;;;10.50;;
297;SDS011;133;49.626;9.680;2023-02-28T15:07:35;13.63;;;10.40;;
297;SDS011;133;49.626;9.680;2023-02-28T15:10:18;10.50;;;9.10;;
297;SDS011;133;49.626;9.680;2023-02-28T15:12:51;11.37;;;9.40;;
297;SDS011;133;49.626;9.680;2023-02-28T15:15:21;12.90;;;10.10;;
297;SDS011;133;49.626;9.680;2023-02-28T15:17:50;11.87;;;9.83;;
297;SDS011;133;49.626;9.680;2023-02-28T15:20:18;13.10;;;10.30;;
297;SDS011;133;49.626;9.680;2023-02-28T15:22:45;12.47;;;9.70;;
297;SDS011;133;49.626;9.680;2023-02-28T15:25:13;11.50;;;9.37;;
297;SDS011;133;49.626;9.680;2023-02-28T15:27:44;13.77;;;9.77;;
297;SDS011;133;49.626;9.680;2023-02-28T15:30:19;12.30;;;10.00;;
297;SDS011;133;49.626;9.680;2023-02-28T15:33:02;13.13;;;9.13;;
297;SDS011;133;49.626;9.680;2023-02-28T15:35:33;11.73;;;9.03;;
297;SDS011;133;49.626;9.680;2023-02-28T15:38:00;11.80;;;9.60;;
297;SDS011;133;49.626;9.680;2023-02-28T15:40:36;10.77;;;9.43;;
297;SDS011;133;49.626;9.680;2023-02-28T15:43:04;11.80;;;9.27;;
297;SDS011;133;49.626;9.680;2023-02-28T15:50:41;11.80;;;9.40;;
297;SDS011;133;49.626;9.680;2023-02-28T15:53:12;11.03;;;8.80;;
297;SDS011;133;49.626;9.680;2023-02-28T15:55:40;13.47;;;9.70;;
297;SDS011;133;49.626;9.680;2023-02-28T15:58:10;14.40;;;9.43;;
297;SDS011;133;49.626;9.680;2023-02-28T16:00:38;12.23;;;9.63;;
297;SDS011;133;49.626;9.680;2023-02-28T16:03:23;13.17;;;8.43;;
297;SDS011;133;49.626;9.680;2023-02-28T16:08:47;12.93;;;9.23;;
297;SDS011;133;49.626;9.680;2023-02-28T16:11:14;11.40;;;8.40;;
297;SDS011;133;49.626;9.680;2023-02-28T16:13:40;9.40;;;8.07;;
297;SDS011;133;49.626;9.680;2023-02-28T16:16:05;9.97;;;8.23;;
297;SDS011;133;49.626;9.680;2023-02-28T16:18:31;11.00;;;8.57;;
297;SDS011;133;49.626;9.680;2023-02-28T16:20:57;12.47;;;9.73;;
297;SDS011;133;49.626;9.680;2023-02-28T16:23:22;13.57;;;9.37;;
297;SDS011;133;49.626;9.680;2023-02-28T16:25:48;13.10;;;8.53;;
297;SDS011;133;49.626;9.680;2023-02-28T16:28:24;10.87;;;7.90;;
297;SDS011;133;49.626;9.680;2023-02-28T16:30:56;11.50;;;8.80;;
297;SDS011;133;49.626;9.680;2023-02-28T16:33:21;12.83;;;8.83;;
297;SDS011;133;49.626;9.680;2023-02-28T16:35:47;13.37;;;8.67;;
297;SDS011;133;49.626;9.680;2023-02-28T16:38:13;14.23;;;7.80;;
297;SDS011;133;49.626;9.680;2023-02-28T16:40:38;12.53;;;9.20;;
297;SDS011;133;49.626;9.680;2023-02-28T16:43:05;14.30;;;9.60;;
297;SDS011;133;49.626;9.680;2023-02-28T16:45:42;13.00;;;9.27;;
297;SDS011;133;49.626;9.680;2023-02-28T16:48:12;11.70;;;9.07;;
297;SDS011;133;49.626;9.680;2023-02-28T16:50:40;11.70;;;9.13;;
297;SDS011;133;49.626;9.680;2023-02-28T16:53:07;12.30;;;9.50;;
297;SDS011;133;49.626;9.680;2023-02-28T16:55:33;12.50;;;9.90;;
297;SDS011;133;49.626;9.680;2023-02-28T16:58:00;12.97;;;11.00;;
297;SDS011;133;49.626;9.680;2023-02-28T17:00:28;11.27;;;10.07;;
297;SDS011;133;49.626;9.680;2023-02-28T17:02:56;12.70;;;9.90;;
297;SDS011;133;49.626;9.680;2023-02-28T17:05:22;12.57;;;9.27;;
297;SDS011;133;49.626;9.680;2023-02-28T17:07:48;14.20;;;8.73;;
297;SDS011;133;49.626;9.680;2023-02-28T17:10:16;11.17;;;8.13;;
297;SDS011;133;49.626;9.680;2023-02-28T17:12:43;11.10;;;8.53;;
297;SDS011;133;49.626;9.680;2023-02-28T17:15:09;17.27;;;9.20;;
297;SDS011;133;49.626;9.680;2023-02-28T17:17:36;11.37;;;7.70;;
297;SDS011;133;49.626;9.680;2023-02-28T17:20:02;9.63;;;6.90;;
297;SDS011;133;49.626;9.680;2023-02-28T17:22:29;11.77;;;7.97;;
297;SDS011;133;49.626;9.680;2023-02-28T17:24:54;10.60;;;8.40;;
297;SDS011;133;49.626;9.680;2023-02-28T17:27:24;11.10;;;8.83;;
297;SDS011;133;49.626;9.680;2023-02-28T17:29:50;11.70;;;8.00;;
297;SDS011;133;49.626;9.680;2023-02-28T17:32:16;10.13;;;7.60;;
297;SDS011;133;49.626;9.680;2023-02-28T17:34:42;11.93;;;8.87;;
297;SDS011;133;49.626;9.680;2023-02-28T17:37:08;10.93;;;8.40;;
297;SDS011;133;49.626;9.680;2023-02-28T17:39:34;9.40;;;7.80;;
297;SDS011;133;49.626;9.680;2023-02-28T17:42:00;10.53;;;7.40;;
297;SDS011;133;49.626;9.680;2023-02-28T17:44:26;9.40;;;7.10;;
297;SDS011;133;49.626;9.680;2023-02-28T17:46:51;9.63;;;7.37;;
297;SDS011;133;49.626;9.680;2023-02-28T17:49:19;10.70;;;7.70;;
297;SDS011;133;49.626;9.680;2023-02-28T17:51:46;12.83;;;8.00;;
297;SDS011;133;49.626;9.680;2023-02-28T17:54:12;9.87;;;7.63;;
297;SDS011;133;49.626;9.680;2023-02-28T17:56:39;8.23;;;7.20;;
297;SDS011;133;49.626;9.680;2023-02-28T17:59:05;11.33;;;7.70;;
297;SDS011;133;49.626;9.680;2023-02-28T18:01:33;9.93;;;7.53;;
297;SDS011;133;49.626;9.680;2023-02-28T18:03:59;9.93;;;8.60;;
297;SDS011;133;49.626;9.680;2023-02-28T18:06:26;9.30;;;7.60;;
297;SDS011;133;49.626;9.680;2023-02-28T18:08:56;9.10;;;7.27;;
297;SDS011;133;49.626;9.680;2023-02-28T18:11:22;11.13;;;7.37;;
297;SDS011;133;49.626;9.680;2023-02-28T18:13:52;8.50;;;7.40;;
297;SDS011;133;49.626;9.680;2023-02-28T18:16:20;10.43;;;7.33;;
297;SDS011;133;49.626;9.680;2023-02-28T18:18:46;9.37;;;7.50;;
297;SDS011;133;49.626;9.680;2023-02-28T18:21:13;12.13;;;7.30;;
297;SDS011;133;49.626;9.680;2023-02-28T18:23:40;9.20;;;7.07;;
297;SDS011;133;49.626;9.680;2023-02-28T18:26:12;10.60;;;7.43;;
297;SDS011;133;49.626;9.680;2023-02-28T18:28:39;9.97;;;7.23;;
297;SDS011;133;49.626;9.680;2023-02-28T18:31:10;11.70;;;7.10;;